Zenken Maru — JG5556 — position and weather

sailwx.info

Track history (hours):
 
Tides and Currents Weather Stations Pressure Air Temp Water Temp Dewpoint Dewpoint Depression Visibility Wind Speed Wind Dir Waves Ship Positions

Zenken Maru

Last reported at 2014-Jul-25 06:31 UTC. Time now 2014-Jul-25 06:51 UTC.
Position N 35°21' E 139°41'.

Length 98 m; draft 7.2 m.

Type: Cargo ship. MMSI: 431100955.

Date/timePositionNaut miles runAvg speedWind from/ knotsBaromVisibWave heightAir tempDewpointWater temp
2014-Jul-25 06:31N 35°21' E 139°41'0 0.1
2014-Jul-25 05:31N 35°21' E 139°41'0 0.1
2014-Jul-25 04:31N 35°21' E 139°41'0 0.0
2014-Jul-25 03:31N 35°21' E 139°41'0 0.0
2014-Jul-25 02:31N 35°21' E 139°41'0 0.0
2014-Jul-25 01:31N 35°21' E 139°41'0 0.0
2014-Jul-25 00:31N 35°21' E 139°41'0 0.0
2014-Jul-24 23:31N 35°21' E 139°41'0 0.0
2014-Jul-24 22:31N 35°21' E 139°41'0 0.0
2014-Jul-24 21:31N 35°21' E 139°41'0 0.0
2014-Jul-24 20:31N 35°21' E 139°41'0 0.0
2014-Jul-24 19:31N 35°21' E 139°41'0 0.0
2014-Jul-24 18:31N 35°21' E 139°41'0 0.0
2014-Jul-24 17:31N 35°21' E 139°41'0 0.0
2014-Jul-24 16:31N 35°21' E 139°41'0 0.0
2014-Jul-24 15:31N 35°21' E 139°41'0 0.0
2014-Jul-24 14:31N 35°21' E 139°41'0 0.1
2014-Jul-24 13:31N 35°21' E 139°41'0 0.0
2014-Jul-24 12:31N 35°21' E 139°41'0 0.0
2014-Jul-24 11:31N 35°21' E 139°41'0 0.0
2014-Jul-24 10:31N 35°21' E 139°41'0 0.0
2014-Jul-24 09:25N 35°21' E 139°41'0 0.0
2014-Jul-24 08:31N 35°21' E 139°41'0 0.0
2014-Jul-24 07:31N 35°21' E 139°41'0 0.0
2014-Jul-24 06:31N 35°21' E 139°41'0 0.0
2014-Jul-24 05:31N 35°21' E 139°41'0 0.1
2014-Jul-24 04:34N 35°21' E 139°41'3 2.6
2014-Jul-24 03:33N 35°23' E 139°39'0 0.0
2014-Jul-24 02:33N 35°23' E 139°39'0 0.0
2014-Jul-24 01:33N 35°23' E 139°39'0 0.0
2014-Jul-24 00:33N 35°23' E 139°39'0 0.0
2014-Jul-23 23:33N 35°23' E 139°39'0 0.3
2014-Jul-23 22:33N 35°23' E 139°39'3 2.6
2014-Jul-23 21:33N 35°21' E 139°41'8 8.3
2014-Jul-23 20:33N 35°14' E 139°47'1211.9
2014-Jul-23 19:33N 35°03' E 139°44'1010.4
2014-Jul-23 18:33N 34°53' E 139°46'11 8.8
2014-Jul-23 17:16N 34°42' E 139°52'7 9.1
2014-Jul-23 16:33N 34°37' E 139°56'14 0.4
2014-Jul-22 08:07N 34°49' E 139°48'814.1
2014-Jul-22 07:33N 34°57' E 139°44'1211.7
2014-Jul-22 06:33N 35°08' E 139°45'1110.7
2014-Jul-22 05:33N 35°19' E 139°44'6 5.6
2014-Jul-22 04:31N 35°23' E 139°39'0 0.0
2014-Jul-22 03:31N 35°23' E 139°39'0 0.0
2014-Jul-22 02:31N 35°23' E 139°39'0 0.0
2014-Jul-22 01:31N 35°23' E 139°39'0 0.0
2014-Jul-22 00:31N 35°23' E 139°39'0 0.0
2014-Jul-21 23:31N 35°23' E 139°39'0 0.5
2014-Jul-21 22:33N 35°23' E 139°40'3 2.5
2014-Jul-21 21:31N 35°21' E 139°41'0 0.0
2014-Jul-21 20:28N 35°21' E 139°41'0 0.0
2014-Jul-21 20:16N 35°21' E 139°41'0 0.0
2014-Jul-21 19:28N 35°21' E 139°41'0 0.1
2014-Jul-21 18:31N 35°21' E 139°41'0 0.0
2014-Jul-21 17:31N 35°21' E 139°41'0 0.1
2014-Jul-21 16:31N 35°21' E 139°41'0 0.1
2014-Jul-21 15:31N 35°21' E 139°41'0 0.0
2014-Jul-21 14:31N 35°21' E 139°41'0 0.0
2014-Jul-21 13:31N 35°21' E 139°41'0 0.0
2014-Jul-21 12:31N 35°21' E 139°41'0 0.0
2014-Jul-21 11:31N 35°21' E 139°41'0 0.0
2014-Jul-21 10:31N 35°21' E 139°41'0 0.0
2014-Jul-21 09:31N 35°21' E 139°41'0 0.0
2014-Jul-21 08:28N 35°21' E 139°41'0 0.0
2014-Jul-21 07:31N 35°21' E 139°41'0 0.1
2014-Jul-21 06:31N 35°21' E 139°41'0 0.0
2014-Jul-21 05:31N 35°21' E 139°41'0 0.1
2014-Jul-21 04:31N 35°21' E 139°41'0 0.0
2014-Jul-21 03:31N 35°21' E 139°41'0 0.0
2014-Jul-21 02:31N 35°21' E 139°41'0 0.1
2014-Jul-21 01:31N 35°21' E 139°41'0 0.0
2014-Jul-21 00:28N 35°21' E 139°41'0 0.0
2014-Jul-20 23:28N 35°21' E 139°41'0 0.1
2014-Jul-20 22:31N 35°21' E 139°41'0 0.0
2014-Jul-20 21:25N 35°21' E 139°41'0 0.1
2014-Jul-20 20:31N 35°21' E 139°41'0 0.1
2014-Jul-20 19:31N 35°21' E 139°41'0 0.0
2014-Jul-20 18:31N 35°21' E 139°41'0 0.0
2014-Jul-20 17:31N 35°21' E 139°41'0 0.0
2014-Jul-20 16:31N 35°21' E 139°41'0 0.0
2014-Jul-20 15:31N 35°21' E 139°41'0 0.0
2014-Jul-20 14:31N 35°21' E 139°41'0 0.1
2014-Jul-20 13:31N 35°21' E 139°41'0 0.0
2014-Jul-20 12:31N 35°21' E 139°41'0 0.0
2014-Jul-20 11:28N 35°21' E 139°41'0 0.1
2014-Jul-20 10:31N 35°21' E 139°41'0 0.0
2014-Jul-20 09:31N 35°21' E 139°41'0 0.0
2014-Jul-20 08:31N 35°21' E 139°41'0 0.1
2014-Jul-20 07:28N 35°21' E 139°41'0 0.0
2014-Jul-20 06:31N 35°21' E 139°41'0 0.0
2014-Jul-20 05:31N 35°21' E 139°41'0 0.0
2014-Jul-20 04:31N 35°21' E 139°41'0 0.0
2014-Jul-20 03:31N 35°21' E 139°41'0 0.0
2014-Jul-20 02:31N 35°21' E 139°41'0 0.0
2014-Jul-20 01:31N 35°21' E 139°41'0 0.1
2014-Jul-20 00:31N 35°21' E 139°41'0 0.1
2014-Jul-19 23:31N 35°21' E 139°41'0 0.1
2014-Jul-19 22:31N 35°21' E 139°41'0 0.0
2014-Jul-19 21:31N 35°21' E 139°41'0 0.1
2014-Jul-19 20:31N 35°21' E 139°41'0 0.0
2014-Jul-19 19:28N 35°21' E 139°41'0 0.0
2014-Jul-19 18:31N 35°21' E 139°41'0 0.0
2014-Jul-19 17:31N 35°21' E 139°41'0 0.0
2014-Jul-19 16:31N 35°21' E 139°41'0 0.0
2014-Jul-19 15:31N 35°21' E 139°41'0 0.0
2014-Jul-19 14:31N 35°21' E 139°41'0 0.0
2014-Jul-19 13:31N 35°21' E 139°41'0 0.0
2014-Jul-19 12:31N 35°21' E 139°41'0 0.1
2014-Jul-19 11:31N 35°21' E 139°41'0 0.0
2014-Jul-19 10:31N 35°21' E 139°41'0 0.0
2014-Jul-19 09:31N 35°21' E 139°41'0 0.0
2014-Jul-19 08:31N 35°21' E 139°41'0 0.1
2014-Jul-19 07:31N 35°21' E 139°41'0 0.1
2014-Jul-19 06:31N 35°21' E 139°41'0 0.1
2014-Jul-19 05:31N 35°21' E 139°41'0 0.0
2014-Jul-19 04:31N 35°21' E 139°41'0 0.0
2014-Jul-19 03:31N 35°21' E 139°41'0 0.0
2014-Jul-19 02:31N 35°21' E 139°41'0 0.0
2014-Jul-19 01:31N 35°21' E 139°41'0 0.0
2014-Jul-19 00:31N 35°21' E 139°41'0 0.0
2014-Jul-18 23:31N 35°21' E 139°41'0 0.0
2014-Jul-18 22:31N 35°21' E 139°41'0 0.0
2014-Jul-18 21:31N 35°21' E 139°41'0 0.0
2014-Jul-18 20:31N 35°21' E 139°41'0 0.0
2014-Jul-18 19:31N 35°21' E 139°41'0 0.0
2014-Jul-18 18:31N 35°21' E 139°41'0 0.0
2014-Jul-18 17:31N 35°21' E 139°41'0 0.0
2014-Jul-18 16:31N 35°21' E 139°41'0 0.0
2014-Jul-18 15:31N 35°21' E 139°41'0 0.0
2014-Jul-18 14:31N 35°21' E 139°41'0 0.0
2014-Jul-18 13:31N 35°21' E 139°41'0 0.0
2014-Jul-18 12:31N 35°21' E 139°41'0 0.0
2014-Jul-18 11:31N 35°21' E 139°41'0 0.0
2014-Jul-18 10:31N 35°21' E 139°41'0 0.0
2014-Jul-18 09:31N 35°21' E 139°41'0 0.0
2014-Jul-18 08:28N 35°21' E 139°41'0 0.0
2014-Jul-18 07:31N 35°21' E 139°41'0 0.0
2014-Jul-18 06:31N 35°21' E 139°41'0 0.0
2014-Jul-18 05:31N 35°21' E 139°41'0 0.1
2014-Jul-18 04:34N 35°21' E 139°41'3 2.7
2014-Jul-18 03:31N 35°23' E 139°39'0 0.0
2014-Jul-18 02:31N 35°23' E 139°39'0 0.0
2014-Jul-18 01:31N 35°23' E 139°39'0 0.0
2014-Jul-18 00:31N 35°23' E 139°39'0 0.0
2014-Jul-17 23:31N 35°23' E 139°39'0 0.4
2014-Jul-17 22:33N 35°23' E 139°40'3 2.7
2014-Jul-17 21:33N 35°21' E 139°42'9 9.1
2014-Jul-17 20:33N 35°13' E 139°47'1111.2
2014-Jul-17 19:33N 35°02' E 139°44'10 9.6
2014-Jul-17 18:33N 34°53' E 139°47'10 8.5
2014-Jul-17 17:20N 34°43' E 139°52'7 8.1
2014-Jul-17 16:27N 34°37' E 139°56'17 0.5
2014-Jul-16 07:04N 34°52' E 139°47'711.9
2014-Jul-16 06:32N 34°58' E 139°43'1211.9
2014-Jul-16 05:33N 35°09' E 139°45'1111.0
2014-Jul-16 04:34N 35°20' E 139°42'4 4.1
2014-Jul-16 03:31N 35°23' E 139°39'0 0.0
2014-Jul-16 02:31N 35°23' E 139°39'0 0.0
2014-Jul-16 01:31N 35°23' E 139°39'0 0.0
2014-Jul-16 00:31N 35°23' E 139°39'0 0.0
2014-Jul-15 23:31N 35°23' E 139°39'0 0.4
2014-Jul-15 22:33N 35°23' E 139°39'3 2.5
2014-Jul-15 21:31N 35°21' E 139°41'0 0.1
2014-Jul-15 20:31N 35°21' E 139°41'0 0.1
2014-Jul-15 19:34N 35°21' E 139°41'0 0.0
2014-Jul-15 18:34N 35°21' E 139°41'0 0.1
2014-Jul-15 17:34N 35°21' E 139°41'0 0.0
2014-Jul-15 16:34N 35°21' E 139°41'0 0.1
2014-Jul-15 15:31N 35°21' E 139°41'0 0.0
2014-Jul-15 14:31N 35°21' E 139°41'0 0.0
2014-Jul-15 13:34N 35°21' E 139°41'0 0.0
2014-Jul-15 12:31N 35°21' E 139°41'0 0.0
2014-Jul-15 11:34N 35°21' E 139°41'0 0.1
2014-Jul-15 10:34N 35°21' E 139°41'0 0.0
2014-Jul-15 09:34N 35°21' E 139°41'0 0.0
2014-Jul-15 08:34N 35°21' E 139°41'0 0.0
2014-Jul-15 07:34N 35°21' E 139°41'0 0.1
2014-Jul-15 06:34N 35°21' E 139°41'  
Track history (hours):
 
Tides and Currents Weather Stations Pressure Air Temp Water Temp Dewpoint Dewpoint Depression Visibility Wind Speed Wind Dir Waves Ship Positions

Zenken Maru

Last reported at 2014-Jul-25 06:31 UTC. Time now 2014-Jul-25 06:51 UTC.
Position N 35°21' E 139°41'.

Length 98 m; draft 7.2 m.

Type: Cargo ship. MMSI: 431100955.

Date/timePositionNaut miles runAvg speedWind from/ knotsBaromVisibWave heightAir tempDewpointWater temp
2014-Jul-25 06:31N 35°21' E 139°41'0 0.1
2014-Jul-25 05:31N 35°21' E 139°41'0 0.1
2014-Jul-25 04:31N 35°21' E 139°41'0 0.0
2014-Jul-25 03:31N 35°21' E 139°41'0 0.0
2014-Jul-25 02:31N 35°21' E 139°41'0 0.0
2014-Jul-25 01:31N 35°21' E 139°41'0 0.0
2014-Jul-25 00:31N 35°21' E 139°41'0 0.0
2014-Jul-24 23:31N 35°21' E 139°41'0 0.0
2014-Jul-24 22:31N 35°21' E 139°41'0 0.0
2014-Jul-24 21:31N 35°21' E 139°41'0 0.0
2014-Jul-24 20:31N 35°21' E 139°41'0 0.0
2014-Jul-24 19:31N 35°21' E 139°41'0 0.0
2014-Jul-24 18:31N 35°21' E 139°41'0 0.0
2014-Jul-24 17:31N 35°21' E 139°41'0 0.0
2014-Jul-24 16:31N 35°21' E 139°41'0 0.0
2014-Jul-24 15:31N 35°21' E 139°41'0 0.0
2014-Jul-24 14:31N 35°21' E 139°41'0 0.1
2014-Jul-24 13:31N 35°21' E 139°41'0 0.0
2014-Jul-24 12:31N 35°21' E 139°41'0 0.0
2014-Jul-24 11:31N 35°21' E 139°41'0 0.0
2014-Jul-24 10:31N 35°21' E 139°41'0 0.0
2014-Jul-24 09:25N 35°21' E 139°41'0 0.0
2014-Jul-24 08:31N 35°21' E 139°41'0 0.0
2014-Jul-24 07:31N 35°21' E 139°41'0 0.0
2014-Jul-24 06:31N 35°21' E 139°41'0 0.0
2014-Jul-24 05:31N 35°21' E 139°41'0 0.1
2014-Jul-24 04:34N 35°21' E 139°41'3 2.6
2014-Jul-24 03:33N 35°23' E 139°39'0 0.0
2014-Jul-24 02:33N 35°23' E 139°39'0 0.0
2014-Jul-24 01:33N 35°23' E 139°39'0 0.0
2014-Jul-24 00:33N 35°23' E 139°39'0 0.0
2014-Jul-23 23:33N 35°23' E 139°39'0 0.3
2014-Jul-23 22:33N 35°23' E 139°39'3 2.6
2014-Jul-23 21:33N 35°21' E 139°41'8 8.3
2014-Jul-23 20:33N 35°14' E 139°47'1211.9
2014-Jul-23 19:33N 35°03' E 139°44'1010.4
2014-Jul-23 18:33N 34°53' E 139°46'11 8.8
2014-Jul-23 17:16N 34°42' E 139°52'7 9.1
2014-Jul-23 16:33N 34°37' E 139°56'14 0.4
2014-Jul-22 08:07N 34°49' E 139°48'814.1
2014-Jul-22 07:33N 34°57' E 139°44'1211.7
2014-Jul-22 06:33N 35°08' E 139°45'1110.7
2014-Jul-22 05:33N 35°19' E 139°44'6 5.6
2014-Jul-22 04:31N 35°23' E 139°39'0 0.0
2014-Jul-22 03:31N 35°23' E 139°39'0 0.0
2014-Jul-22 02:31N 35°23' E 139°39'0 0.0
2014-Jul-22 01:31N 35°23' E 139°39'0 0.0
2014-Jul-22 00:31N 35°23' E 139°39'0 0.0
2014-Jul-21 23:31N 35°23' E 139°39'0 0.5
2014-Jul-21 22:33N 35°23' E 139°40'3 2.5
2014-Jul-21 21:31N 35°21' E 139°41'0 0.0
2014-Jul-21 20:28N 35°21' E 139°41'0 0.0
2014-Jul-21 20:16N 35°21' E 139°41'0 0.0
2014-Jul-21 19:28N 35°21' E 139°41'0 0.1
2014-Jul-21 18:31N 35°21' E 139°41'0 0.0
2014-Jul-21 17:31N 35°21' E 139°41'0 0.1
2014-Jul-21 16:31N 35°21' E 139°41'0 0.1
2014-Jul-21 15:31N 35°21' E 139°41'0 0.0
2014-Jul-21 14:31N 35°21' E 139°41'0 0.0
2014-Jul-21 13:31N 35°21' E 139°41'0 0.0
2014-Jul-21 12:31N 35°21' E 139°41'0 0.0
2014-Jul-21 11:31N 35°21' E 139°41'0 0.0
2014-Jul-21 10:31N 35°21' E 139°41'0 0.0
2014-Jul-21 09:31N 35°21' E 139°41'0 0.0
2014-Jul-21 08:28N 35°21' E 139°41'0 0.0
2014-Jul-21 07:31N 35°21' E 139°41'0 0.1
2014-Jul-21 06:31N 35°21' E 139°41'0 0.0
2014-Jul-21 05:31N 35°21' E 139°41'0 0.1
2014-Jul-21 04:31N 35°21' E 139°41'0 0.0
2014-Jul-21 03:31N 35°21' E 139°41'0 0.0
2014-Jul-21 02:31N 35°21' E 139°41'0 0.1
2014-Jul-21 01:31N 35°21' E 139°41'0 0.0
2014-Jul-21 00:28N 35°21' E 139°41'0 0.0
2014-Jul-20 23:28N 35°21' E 139°41'0 0.1
2014-Jul-20 22:31N 35°21' E 139°41'0 0.0
2014-Jul-20 21:25N 35°21' E 139°41'0 0.1
2014-Jul-20 20:31N 35°21' E 139°41'0 0.1
2014-Jul-20 19:31N 35°21' E 139°41'0 0.0
2014-Jul-20 18:31N 35°21' E 139°41'0 0.0
2014-Jul-20 17:31N 35°21' E 139°41'0 0.0
2014-Jul-20 16:31N 35°21' E 139°41'0 0.0
2014-Jul-20 15:31N 35°21' E 139°41'0 0.0
2014-Jul-20 14:31N 35°21' E 139°41'0 0.1
2014-Jul-20 13:31N 35°21' E 139°41'0 0.0
2014-Jul-20 12:31N 35°21' E 139°41'0 0.0
2014-Jul-20 11:28N 35°21' E 139°41'0 0.1
2014-Jul-20 10:31N 35°21' E 139°41'0 0.0
2014-Jul-20 09:31N 35°21' E 139°41'0 0.0
2014-Jul-20 08:31N 35°21' E 139°41'0 0.1
2014-Jul-20 07:28N 35°21' E 139°41'0 0.0
2014-Jul-20 06:31N 35°21' E 139°41'0 0.0
2014-Jul-20 05:31N 35°21' E 139°41'0 0.0
2014-Jul-20 04:31N 35°21' E 139°41'0 0.0
2014-Jul-20 03:31N 35°21' E 139°41'0 0.0
2014-Jul-20 02:31N 35°21' E 139°41'0 0.0
2014-Jul-20 01:31N 35°21' E 139°41'0 0.1
2014-Jul-20 00:31N 35°21' E 139°41'0 0.1
2014-Jul-19 23:31N 35°21' E 139°41'0 0.1
2014-Jul-19 22:31N 35°21' E 139°41'0 0.0
2014-Jul-19 21:31N 35°21' E 139°41'0 0.1
2014-Jul-19 20:31N 35°21' E 139°41'0 0.0
2014-Jul-19 19:28N 35°21' E 139°41'0 0.0
2014-Jul-19 18:31N 35°21' E 139°41'0 0.0
2014-Jul-19 17:31N 35°21' E 139°41'0 0.0
2014-Jul-19 16:31N 35°21' E 139°41'0 0.0
2014-Jul-19 15:31N 35°21' E 139°41'0 0.0
2014-Jul-19 14:31N 35°21' E 139°41'0 0.0
2014-Jul-19 13:31N 35°21' E 139°41'0 0.0
2014-Jul-19 12:31N 35°21' E 139°41'0 0.1
2014-Jul-19 11:31N 35°21' E 139°41'0 0.0
2014-Jul-19 10:31N 35°21' E 139°41'0 0.0
2014-Jul-19 09:31N 35°21' E 139°41'0 0.0
2014-Jul-19 08:31N 35°21' E 139°41'0 0.1
2014-Jul-19 07:31N 35°21' E 139°41'0 0.1
2014-Jul-19 06:31N 35°21' E 139°41'0 0.1
2014-Jul-19 05:31N 35°21' E 139°41'0 0.0
2014-Jul-19 04:31N 35°21' E 139°41'0 0.0
2014-Jul-19 03:31N 35°21' E 139°41'0 0.0
2014-Jul-19 02:31N 35°21' E 139°41'0 0.0
2014-Jul-19 01:31N 35°21' E 139°41'0 0.0
2014-Jul-19 00:31N 35°21' E 139°41'0 0.0
2014-Jul-18 23:31N 35°21' E 139°41'0 0.0
2014-Jul-18 22:31N 35°21' E 139°41'0 0.0
2014-Jul-18 21:31N 35°21' E 139°41'0 0.0
2014-Jul-18 20:31N 35°21' E 139°41'0 0.0
2014-Jul-18 19:31N 35°21' E 139°41'0 0.0
2014-Jul-18 18:31N 35°21' E 139°41'0 0.0
2014-Jul-18 17:31N 35°21' E 139°41'0 0.0
2014-Jul-18 16:31N 35°21' E 139°41'0 0.0
2014-Jul-18 15:31N 35°21' E 139°41'0 0.0
2014-Jul-18 14:31N 35°21' E 139°41'0 0.0
2014-Jul-18 13:31N 35°21' E 139°41'0 0.0
2014-Jul-18 12:31N 35°21' E 139°41'0 0.0
2014-Jul-18 11:31N 35°21' E 139°41'0 0.0
2014-Jul-18 10:31N 35°21' E 139°41'0 0.0
2014-Jul-18 09:31N 35°21' E 139°41'0 0.0
2014-Jul-18 08:28N 35°21' E 139°41'0 0.0
2014-Jul-18 07:31N 35°21' E 139°41'0 0.0
2014-Jul-18 06:31N 35°21' E 139°41'0 0.0
2014-Jul-18 05:31N 35°21' E 139°41'0 0.1
2014-Jul-18 04:34N 35°21' E 139°41'3 2.7
2014-Jul-18 03:31N 35°23' E 139°39'0 0.0
2014-Jul-18 02:31N 35°23' E 139°39'0 0.0
2014-Jul-18 01:31N 35°23' E 139°39'0 0.0
2014-Jul-18 00:31N 35°23' E 139°39'0 0.0
2014-Jul-17 23:31N 35°23' E 139°39'0 0.4
2014-Jul-17 22:33N 35°23' E 139°40'3 2.7
2014-Jul-17 21:33N 35°21' E 139°42'9 9.1
2014-Jul-17 20:33N 35°13' E 139°47'1111.2
2014-Jul-17 19:33N 35°02' E 139°44'10 9.6
2014-Jul-17 18:33N 34°53' E 139°47'10 8.5
2014-Jul-17 17:20N 34°43' E 139°52'7 8.1
2014-Jul-17 16:27N 34°37' E 139°56'17 0.5
2014-Jul-16 07:04N 34°52' E 139°47'711.9
2014-Jul-16 06:32N 34°58' E 139°43'1211.9
2014-Jul-16 05:33N 35°09' E 139°45'1111.0
2014-Jul-16 04:34N 35°20' E 139°42'4 4.1
2014-Jul-16 03:31N 35°23' E 139°39'0 0.0
2014-Jul-16 02:31N 35°23' E 139°39'0 0.0
2014-Jul-16 01:31N 35°23' E 139°39'0 0.0
2014-Jul-16 00:31N 35°23' E 139°39'0 0.0
2014-Jul-15 23:31N 35°23' E 139°39'0 0.4
2014-Jul-15 22:33N 35°23' E 139°39'3 2.5
2014-Jul-15 21:31N 35°21' E 139°41'0 0.1
2014-Jul-15 20:31N 35°21' E 139°41'0 0.1
2014-Jul-15 19:34N 35°21' E 139°41'0 0.0
2014-Jul-15 18:34N 35°21' E 139°41'0 0.1
2014-Jul-15 17:34N 35°21' E 139°41'0 0.0
2014-Jul-15 16:34N 35°21' E 139°41'0 0.1
2014-Jul-15 15:31N 35°21' E 139°41'0 0.0
2014-Jul-15 14:31N 35°21' E 139°41'0 0.0
2014-Jul-15 13:34N 35°21' E 139°41'0 0.0
2014-Jul-15 12:31N 35°21' E 139°41'0 0.0
2014-Jul-15 11:34N 35°21' E 139°41'0 0.1
2014-Jul-15 10:34N 35°21' E 139°41'0 0.0
2014-Jul-15 09:34N 35°21' E 139°41'0 0.0
2014-Jul-15 08:34N 35°21' E 139°41'0 0.0
2014-Jul-15 07:34N 35°21' E 139°41'0 0.1
2014-Jul-15 06:34N 35°21' E 139°41'  

Dump ship's entire track history